sensor_id;sensor_type;location;lat;lon;timestamp;pressure;altitude;pressure_sealevel;temperature;humidity
63819;BME280;49970;54.976;73.248;2023-07-13T00:00:18;99664.72;;;27.94;48.47
63819;BME280;49970;54.976;73.248;2023-07-13T00:02:44;99666.16;;;27.85;48.08
63819;BME280;49970;54.976;73.248;2023-07-13T00:05:10;99661.16;;;27.82;48.49
63819;BME280;49970;54.976;73.248;2023-07-13T00:07:37;99667.91;;;27.79;49.00
63819;BME280;49970;54.976;73.248;2023-07-13T00:10:03;99665.19;;;27.79;48.88
63819;BME280;49970;54.976;73.248;2023-07-13T00:12:33;99652.41;;;27.79;48.53
63819;BME280;49970;54.976;73.248;2023-07-13T00:15:03;99649.47;;;27.81;48.56
63819;BME280;49970;54.976;73.248;2023-07-13T00:17:30;99646.97;;;27.79;49.17
63819;BME280;49970;54.976;73.248;2023-07-13T00:19:57;99659.38;;;27.87;48.94
63819;BME280;49970;54.976;73.248;2023-07-13T00:22:24;99655.25;;;27.85;49.03
63819;BME280;49970;54.976;73.248;2023-07-13T00:24:54;99650.28;;;27.82;49.27
63819;BME280;49970;54.976;73.248;2023-07-13T00:27:24;99634.88;;;27.75;49.28
63819;BME280;49970;54.976;73.248;2023-07-13T00:29:52;99640.81;;;27.84;49.51
63819;BME280;49970;54.976;73.248;2023-07-13T00:32:19;99651.22;;;27.87;49.41
63819;BME280;49970;54.976;73.248;2023-07-13T00:34:45;99648.38;;;27.94;49.39
63819;BME280;49970;54.976;73.248;2023-07-13T00:37:11;99652.03;;;27.99;49.35
63819;BME280;49970;54.976;73.248;2023-07-13T00:39:38;99641.03;;;28.06;49.86
63819;BME280;49970;54.976;73.248;2023-07-13T00:42:05;99641.03;;;28.06;48.83
63819;BME280;49970;54.976;73.248;2023-07-13T00:44:31;99649.28;;;28.11;48.93
63819;BME280;49970;54.976;73.248;2023-07-13T00:46:58;99639.09;;;28.18;49.07
63819;BME280;49970;54.976;73.248;2023-07-13T00:49:27;99638.03;;;28.19;49.36
63819;BME280;49970;54.976;73.248;2023-07-13T00:51:58;99637.44;;;28.17;49.57
63819;BME280;49970;54.976;73.248;2023-07-13T00:54:45;99642.75;;;28.24;49.96
63819;BME280;49970;54.976;73.248;2023-07-13T00:57:16;99649.63;;;28.26;49.21
63819;BME280;49970;54.976;73.248;2023-07-13T00:59:47;99656.72;;;28.27;49.51
63819;BME280;49970;54.976;73.248;2023-07-13T01:02:15;99671.63;;;28.25;49.73
63819;BME280;49970;54.976;73.248;2023-07-13T01:04:42;99684.31;;;28.31;49.48
63819;BME280;49970;54.976;73.248;2023-07-13T01:07:11;99694.69;;;28.34;49.82
63819;BME280;49970;54.976;73.248;2023-07-13T01:09:38;99670.91;;;28.29;49.39
63819;BME280;49970;54.976;73.248;2023-07-13T01:12:05;99674.09;;;28.38;49.43
63819;BME280;49970;54.976;73.248;2023-07-13T01:14:31;99666.19;;;28.37;49.93
63819;BME280;49970;54.976;73.248;2023-07-13T01:16:58;99668.31;;;28.35;49.81
63819;BME280;49970;54.976;73.248;2023-07-13T01:19:45;99659.28;;;28.34;50.05
63819;BME280;49970;54.976;73.248;2023-07-13T01:22:15;99663.81;;;28.28;49.68
63819;BME280;49970;54.976;73.248;2023-07-13T01:25:02;99653.00;;;28.34;49.69
63819;BME280;49970;54.976;73.248;2023-07-13T01:27:48;99651.03;;;28.41;49.58
63819;BME280;49970;54.976;73.248;2023-07-13T01:31:09;99642.13;;;28.45;50.18
63819;BME280;49970;54.976;73.248;2023-07-13T01:33:38;99635.94;;;28.50;49.99
63819;BME280;49970;54.976;73.248;2023-07-13T01:36:09;99644.56;;;28.59;50.54
63819;BME280;49970;54.976;73.248;2023-07-13T01:38:37;99642.34;;;28.56;50.02
63819;BME280;49970;54.976;73.248;2023-07-13T01:41:03;99637.94;;;28.54;50.38
63819;BME280;49970;54.976;73.248;2023-07-13T01:43:30;99635.31;;;28.60;50.68
63819;BME280;49970;54.976;73.248;2023-07-13T01:45:56;99634.25;;;28.61;50.17
63819;BME280;49970;54.976;73.248;2023-07-13T01:48:42;99636.63;;;28.57;50.12
63819;BME280;49970;54.976;73.248;2023-07-13T01:51:56;99628.72;;;28.56;50.68
63819;BME280;49970;54.976;73.248;2023-07-13T01:54:44;99623.81;;;28.58;50.45
63819;BME280;49970;54.976;73.248;2023-07-13T01:57:56;99617.72;;;28.67;50.35
63819;BME280;49970;54.976;73.248;2023-07-13T02:00:23;99612.16;;;28.74;49.36
63819;BME280;49970;54.976;73.248;2023-07-13T02:03:30;99607.38;;;28.81;49.32
63819;BME280;49970;54.976;73.248;2023-07-13T02:07:02;99610.59;;;28.95;49.93
63819;BME280;49970;54.976;73.248;2023-07-13T02:18:32;99604.41;;;29.50;49.02
63819;BME280;49970;54.976;73.248;2023-07-13T02:22:25;99597.00;;;29.84;48.55
63819;BME280;49970;54.976;73.248;2023-07-13T02:26:15;99598.28;;;30.42;46.75
63819;BME280;49970;54.976;73.248;2023-07-13T02:30:06;99591.78;;;31.03;45.89
63819;BME280;49970;54.976;73.248;2023-07-13T02:37:46;99591.19;;;32.33;44.43
63819;BME280;49970;54.976;73.248;2023-07-13T02:42:02;99580.06;;;32.85;44.19
63819;BME280;49970;54.976;73.248;2023-07-13T02:45:34;99588.06;;;33.12;43.77
63819;BME280;49970;54.976;73.248;2023-07-13T02:49:24;99589.44;;;33.05;43.71
63819;BME280;49970;54.976;73.248;2023-07-13T02:57:05;99581.97;;;32.90;42.79
63819;BME280;49970;54.976;73.248;2023-07-13T03:00:39;99575.72;;;33.00;43.22
63819;BME280;49970;54.976;73.248;2023-07-13T03:03:28;99583.13;;;33.04;43.07
63819;BME280;49970;54.976;73.248;2023-07-13T03:07:19;99561.72;;;33.06;43.03
63819;BME280;49970;54.976;73.248;2023-07-13T03:16:06;99577.91;;;33.28;44.46
63819;BME280;49970;54.976;73.248;2023-07-13T03:20:21;99570.19;;;33.40;42.76
63819;BME280;49970;54.976;73.248;2023-07-13T03:23:53;99577.91;;;33.49;42.84
63819;BME280;49970;54.976;73.248;2023-07-13T03:27:27;99574.84;;;33.55;42.87
63819;BME280;49970;54.976;73.248;2023-07-13T03:29:54;99577.56;;;33.60;42.23
63819;BME280;49970;54.976;73.248;2023-07-13T03:32:40;99567.41;;;33.66;42.77
63819;BME280;49970;54.976;73.248;2023-07-13T03:36:34;99556.69;;;33.64;41.96
63819;BME280;49970;54.976;73.248;2023-07-13T03:40:26;99574.81;;;33.60;41.83
63819;BME280;49970;54.976;73.248;2023-07-13T03:43:08;99580.84;;;33.67;42.92
63819;BME280;49970;54.976;73.248;2023-07-13T03:45:55;99575.34;;;33.72;43.00
63819;BME280;49970;54.976;73.248;2023-07-13T03:49:06;99569.59;;;33.74;42.68
63819;BME280;49970;54.976;73.248;2023-07-13T03:51:32;99576.19;;;33.68;41.47
63819;BME280;49970;54.976;73.248;2023-07-13T03:54:00;99565.53;;;33.46;42.90
63819;BME280;49970;54.976;73.248;2023-07-13T03:56:26;99577.34;;;33.46;44.07
63819;BME280;49970;54.976;73.248;2023-07-13T03:58:53;99578.69;;;33.54;42.97
63819;BME280;49970;54.976;73.248;2023-07-13T04:01:23;99578.13;;;33.52;42.65
63819;BME280;49970;54.976;73.248;2023-07-13T04:03:51;99578.16;;;33.37;42.56
63819;BME280;49970;54.976;73.248;2023-07-13T04:06:23;99573.22;;;33.18;43.43
63819;BME280;49970;54.976;73.248;2023-07-13T04:08:54;99575.13;;;33.23;44.22
63819;BME280;49970;54.976;73.248;2023-07-13T04:11:23;99574.84;;;33.40;44.16
63819;BME280;49970;54.976;73.248;2023-07-13T04:13:50;99570.44;;;33.44;42.64
63819;BME280;49970;54.976;73.248;2023-07-13T04:16:17;99582.00;;;33.51;42.49
63819;BME280;49970;54.976;73.248;2023-07-13T04:18:45;99577.88;;;33.54;42.53
63819;BME280;49970;54.976;73.248;2023-07-13T04:21:12;99572.91;;;33.61;41.94
63819;BME280;49970;54.976;73.248;2023-07-13T04:23:39;99581.41;;;33.75;42.14
63819;BME280;49970;54.976;73.248;2023-07-13T04:26:05;99577.81;;;33.74;42.22
63819;BME280;49970;54.976;73.248;2023-07-13T04:28:33;99576.41;;;33.87;42.25
63819;BME280;49970;54.976;73.248;2023-07-13T04:30:59;99579.94;;;33.98;42.49
63819;BME280;49970;54.976;73.248;2023-07-13T04:33:27;99579.91;;;34.03;43.23
63819;BME280;49970;54.976;73.248;2023-07-13T04:35:55;99578.53;;;34.05;41.59
63819;BME280;49970;54.976;73.248;2023-07-13T04:38:28;99575.28;;;33.98;41.92
63819;BME280;49970;54.976;73.248;2023-07-13T04:41:14;99564.00;;;33.94;41.98
63819;BME280;49970;54.976;73.248;2023-07-13T04:45:09;99546.41;;;33.95;41.60
63819;BME280;49970;54.976;73.248;2023-07-13T05:00:27;99574.09;;;34.14;41.22
63819;BME280;49970;54.976;73.248;2023-07-13T05:08:19;99567.28;;;34.56;41.19
63819;BME280;49970;54.976;73.248;2023-07-13T05:12:10;99566.78;;;34.44;41.19
63819;BME280;49970;54.976;73.248;2023-07-13T05:16:02;99580.59;;;34.34;41.80
63819;BME280;49970;54.976;73.248;2023-07-13T05:23:42;99578.31;;;34.51;42.03
63819;BME280;49970;54.976;73.248;2023-07-13T05:27:39;99570.53;;;34.63;40.93
63819;BME280;49970;54.976;73.248;2023-07-13T05:31:31;99562.91;;;34.55;41.43
63819;BME280;49970;54.976;73.248;2023-07-13T05:35:22;99552.75;;;34.45;39.97
63819;BME280;49970;54.976;73.248;2023-07-13T05:39:13;99556.88;;;34.48;40.71
63819;BME280;49970;54.976;73.248;2023-07-13T05:43:03;99548.53;;;34.63;40.45
63819;BME280;49970;54.976;73.248;2023-07-13T05:46:54;99540.25;;;34.68;39.53
63819;BME280;49970;54.976;73.248;2023-07-13T05:50:45;99529.72;;;34.76;38.95
63819;BME280;49970;54.976;73.248;2023-07-13T05:54:36;99540.94;;;34.84;39.25
63819;BME280;49970;54.976;73.248;2023-07-13T05:58:33;99537.78;;;35.01;40.41
63819;BME280;49970;54.976;73.248;2023-07-13T06:02:23;99528.91;;;35.09;39.93
63819;BME280;49970;54.976;73.248;2023-07-13T06:06:15;99538.41;;;35.22;40.30
63819;BME280;49970;54.976;73.248;2023-07-13T06:10:05;99525.22;;;35.19;40.19
63819;BME280;49970;54.976;73.248;2023-07-13T06:13:57;99524.97;;;35.21;39.80
63819;BME280;49970;54.976;73.248;2023-07-13T06:17:53;99521.41;;;35.15;39.30
63819;BME280;49970;54.976;73.248;2023-07-13T06:21:49;99531.28;;;35.21;40.06
63819;BME280;49970;54.976;73.248;2023-07-13T06:25:40;99513.66;;;35.46;40.00
63819;BME280;49970;54.976;73.248;2023-07-13T06:29:31;99516.13;;;35.48;39.42
63819;BME280;49970;54.976;73.248;2023-07-13T06:48:42;99512.19;;;35.78;36.48
63819;BME280;49970;54.976;73.248;2023-07-13T06:52:38;99505.13;;;35.72;36.57
63819;BME280;49970;54.976;73.248;2023-07-13T06:56:34;99501.94;;;35.83;36.27
63819;BME280;49970;54.976;73.248;2023-07-13T07:00:26;99478.75;;;35.84;35.64
63819;BME280;49970;54.976;73.248;2023-07-13T07:04:16;99494.47;;;35.84;36.29
63819;BME280;49970;54.976;73.248;2023-07-13T07:08:08;99499.81;;;35.99;36.64
63819;BME280;49970;54.976;73.248;2023-07-13T07:11:58;99491.19;;;36.25;36.60
63819;BME280;49970;54.976;73.248;2023-07-13T07:15:50;99485.63;;;36.44;36.91
63819;BME280;49970;54.976;73.248;2023-07-13T07:19:40;99487.25;;;36.50;37.32
63819;BME280;49970;54.976;73.248;2023-07-13T07:23:31;99483.94;;;36.48;36.93
63819;BME280;49970;54.976;73.248;2023-07-13T07:35:01;99470.66;;;36.31;37.46
63819;BME280;49970;54.976;73.248;2023-07-13T07:39:17;99474.03;;;36.28;36.66
63819;BME280;49970;54.976;73.248;2023-07-13T07:41:43;99477.31;;;36.30;35.48
63819;BME280;49970;54.976;73.248;2023-07-13T07:44:09;99462.94;;;36.33;35.65
63819;BME280;49970;54.976;73.248;2023-07-13T07:46:36;99464.16;;;36.40;36.47
63819;BME280;49970;54.976;73.248;2023-07-13T07:49:02;99459.78;;;36.39;35.51
63819;BME280;49970;54.976;73.248;2023-07-13T07:51:29;99460.69;;;36.35;36.96
63819;BME280;49970;54.976;73.248;2023-07-13T07:53:55;99462.22;;;36.41;37.12
63819;BME280;49970;54.976;73.248;2023-07-13T07:56:21;99451.72;;;36.43;36.27
63819;BME280;49970;54.976;73.248;2023-07-13T07:58:47;99460.53;;;36.45;37.11
63819;BME280;49970;54.976;73.248;2023-07-13T08:01:13;99460.97;;;36.52;37.79
63819;BME280;49970;54.976;73.248;2023-07-13T08:03:40;99456.22;;;36.58;37.20
63819;BME280;49970;54.976;73.248;2023-07-13T08:06:06;99454.25;;;36.58;36.97
63819;BME280;49970;54.976;73.248;2023-07-13T08:08:32;99454.66;;;36.65;36.72
63819;BME280;49970;54.976;73.248;2023-07-13T08:11:04;99448.06;;;36.67;37.00
63819;BME280;49970;54.976;73.248;2023-07-13T08:13:33;99441.50;;;36.62;36.91
63819;BME280;49970;54.976;73.248;2023-07-13T08:16:00;99459.50;;;36.74;37.17
63819;BME280;49970;54.976;73.248;2023-07-13T08:18:26;99453.59;;;36.80;36.29
63819;BME280;49970;54.976;73.248;2023-07-13T08:20:54;99460.19;;;36.98;36.30
63819;BME280;49970;54.976;73.248;2023-07-13T08:23:25;99454.50;;;37.08;36.42
63819;BME280;49970;54.976;73.248;2023-07-13T08:25:53;99453.47;;;37.04;35.28
63819;BME280;49970;54.976;73.248;2023-07-13T08:28:22;99456.94;;;36.96;37.65
63819;BME280;49970;54.976;73.248;2023-07-13T08:30:48;99444.44;;;36.99;36.86
63819;BME280;49970;54.976;73.248;2023-07-13T08:33:19;99446.81;;;37.05;35.95
63819;BME280;49970;54.976;73.248;2023-07-13T08:35:47;99433.19;;;36.95;35.54
63819;BME280;49970;54.976;73.248;2023-07-13T08:38:13;99452.94;;;37.02;35.46
63819;BME280;49970;54.976;73.248;2023-07-13T08:40:40;99446.81;;;37.05;36.10
63819;BME280;49970;54.976;73.248;2023-07-13T08:43:15;99452.00;;;37.07;36.08
63819;BME280;49970;54.976;73.248;2023-07-13T08:46:19;99443.53;;;37.03;35.71
63819;BME280;49970;54.976;73.248;2023-07-13T08:49:50;99435.94;;;36.95;35.32
63819;BME280;49970;54.976;73.248;2023-07-13T08:52:35;99441.69;;;36.99;36.55
63819;BME280;49970;54.976;73.248;2023-07-13T08:55:12;99436.47;;;36.97;35.70
63819;BME280;49970;54.976;73.248;2023-07-13T08:57:39;99437.41;;;37.06;35.09
63819;BME280;49970;54.976;73.248;2023-07-13T09:00:11;99443.34;;;37.13;34.63
63819;BME280;49970;54.976;73.248;2023-07-13T09:02:58;99444.16;;;37.14;34.80
63819;BME280;49970;54.976;73.248;2023-07-13T09:05:58;99434.44;;;37.17;34.89
63819;BME280;49970;54.976;73.248;2023-07-13T09:11:17;99425.63;;;37.14;34.71
63819;BME280;49970;54.976;73.248;2023-07-13T09:16:46;99427.59;;;37.00;35.27
63819;BME280;49970;54.976;73.248;2023-07-13T09:19:23;99428.41;;;37.01;34.73
63819;BME280;49970;54.976;73.248;2023-07-13T09:21:53;99431.56;;;37.08;34.59
63819;BME280;49970;54.976;73.248;2023-07-13T09:26:56;99413.78;;;37.14;34.25
63819;BME280;49970;54.976;73.248;2023-07-13T09:29:33;99419.41;;;37.09;34.60
63819;BME280;49970;54.976;73.248;2023-07-13T09:32:06;99410.59;;;37.07;36.49
63819;BME280;49970;54.976;73.248;2023-07-13T09:34:35;99409.06;;;37.01;35.63
63819;BME280;49970;54.976;73.248;2023-07-13T09:37:01;99413.25;;;36.98;36.08
63819;BME280;49970;54.976;73.248;2023-07-13T09:39:30;99410.22;;;37.00;36.89
63819;BME280;49970;54.976;73.248;2023-07-13T09:42:14;99419.31;;;37.00;35.52
63819;BME280;49970;54.976;73.248;2023-07-13T09:48:18;99410.59;;;36.93;35.88
63819;BME280;49970;54.976;73.248;2023-07-13T09:52:11;99413.38;;;36.93;36.40
63819;BME280;49970;54.976;73.248;2023-07-13T09:56:11;99407.13;;;37.01;36.28
63819;BME280;49970;54.976;73.248;2023-07-13T10:00:05;99409.78;;;37.06;36.30
63819;BME280;49970;54.976;73.248;2023-07-13T10:02:36;99399.16;;;37.13;35.31
63819;BME280;49970;54.976;73.248;2023-07-13T10:05:07;99401.81;;;37.19;35.77
63819;BME280;49970;54.976;73.248;2023-07-13T10:07:40;99406.84;;;37.17;35.67
63819;BME280;49970;54.976;73.248;2023-07-13T10:10:18;99400.19;;;37.18;34.79
63819;BME280;49970;54.976;73.248;2023-07-13T10:12:46;99402.94;;;37.18;33.89
63819;BME280;49970;54.976;73.248;2023-07-13T10:15:19;99396.06;;;37.15;33.12
63819;BME280;49970;54.976;73.248;2023-07-13T10:17:46;99401.00;;;37.18;33.01
63819;BME280;49970;54.976;73.248;2023-07-13T10:20:15;99391.56;;;37.19;32.79
63819;BME280;49970;54.976;73.248;2023-07-13T10:22:59;99393.03;;;37.17;33.34
63819;BME280;49970;54.976;73.248;2023-07-13T10:25:31;99394.13;;;37.15;32.30
63819;BME280;49970;54.976;73.248;2023-07-13T10:28:27;99392.19;;;37.16;33.12
63819;BME280;49970;54.976;73.248;2023-07-13T10:30:53;99393.19;;;37.20;33.31
63819;BME280;49970;54.976;73.248;2023-07-13T10:33:22;99385.03;;;37.15;33.58
63819;BME280;49970;54.976;73.248;2023-07-13T10:35:52;99391.28;;;37.21;33.59
63819;BME280;49970;54.976;73.248;2023-07-13T10:38:22;99393.03;;;37.17;33.86
63819;BME280;49970;54.976;73.248;2023-07-13T10:41:04;99380.75;;;37.09;33.88
63819;BME280;49970;54.976;73.248;2023-07-13T10:43:37;99378.06;;;37.04;34.32
63819;BME280;49970;54.976;73.248;2023-07-13T10:46:07;99369.28;;;37.02;35.47
63819;BME280;49970;54.976;73.248;2023-07-13T10:48:35;99363.06;;;36.96;35.58
63819;BME280;49970;54.976;73.248;2023-07-13T10:51:05;99366.03;;;37.00;36.12
63819;BME280;49970;54.976;73.248;2023-07-13T10:53:34;99359.78;;;36.94;35.40
63819;BME280;49970;54.976;73.248;2023-07-13T10:56:05;99370.72;;;36.99;34.55
63819;BME280;49970;54.976;73.248;2023-07-13T10:58:39;99369.47;;;36.92;34.58
63819;BME280;49970;54.976;73.248;2023-07-13T11:03:37;99372.09;;;36.83;35.22
63819;BME280;49970;54.976;73.248;2023-07-13T11:11:33;99361.81;;;36.75;35.50
63819;BME280;49970;54.976;73.248;2023-07-13T11:14:03;99363.84;;;36.69;36.16
63819;BME280;49970;54.976;73.248;2023-07-13T11:21:31;99365.34;;;36.61;35.83
63819;BME280;49970;54.976;73.248;2023-07-13T11:24:14;99354.94;;;36.58;36.15
63819;BME280;49970;54.976;73.248;2023-07-13T11:29:27;99342.44;;;36.47;35.94
63819;BME280;49970;54.976;73.248;2023-07-13T11:32:01;99346.34;;;36.46;36.54
63819;BME280;49970;54.976;73.248;2023-07-13T11:34:34;99349.38;;;36.45;35.92
63819;BME280;49970;54.976;73.248;2023-07-13T11:37:02;99343.94;;;36.39;36.64
63819;BME280;49970;54.976;73.248;2023-07-13T11:39:35;99345.16;;;36.33;37.54
63819;BME280;49970;54.976;73.248;2023-07-13T11:42:08;99341.38;;;36.29;37.69
63819;BME280;49970;54.976;73.248;2023-07-13T11:44:42;99342.28;;;36.25;36.77
63819;BME280;49970;54.976;73.248;2023-07-13T11:47:11;99330.50;;;36.19;36.88
63819;BME280;49970;54.976;73.248;2023-07-13T11:49:58;99334.69;;;36.16;36.88
63819;BME280;49970;54.976;73.248;2023-07-13T11:52:35;99335.31;;;36.13;37.62
63819;BME280;49970;54.976;73.248;2023-07-13T11:55:14;99340.09;;;36.08;37.50
63819;BME280;49970;54.976;73.248;2023-07-13T11:58:03;99342.09;;;36.02;37.46
63819;BME280;49970;54.976;73.248;2023-07-13T12:00:49;99339.50;;;35.92;38.90
63819;BME280;49970;54.976;73.248;2023-07-13T12:03:51;99335.47;;;35.84;38.47
63819;BME280;49970;54.976;73.248;2023-07-13T12:08:51;99336.00;;;35.67;38.26
63819;BME280;49970;54.976;73.248;2023-07-13T12:11:18;99333.75;;;35.70;38.65
63819;BME280;49970;54.976;73.248;2023-07-13T12:14:04;99327.81;;;35.62;39.00
63819;BME280;49970;54.976;73.248;2023-07-13T12:16:50;99330.03;;;35.60;39.51
63819;BME280;49970;54.976;73.248;2023-07-13T12:19:22;99329.00;;;35.56;39.30
63819;BME280;49970;54.976;73.248;2023-07-13T12:21:50;99318.56;;;35.53;39.87
63819;BME280;49970;54.976;73.248;2023-07-13T12:24:20;99309.59;;;35.48;40.65
63819;BME280;49970;54.976;73.248;2023-07-13T12:26:53;99306.56;;;35.44;40.02
63819;BME280;49970;54.976;73.248;2023-07-13T12:29:20;99310.53;;;35.38;40.19
63819;BME280;49970;54.976;73.248;2023-07-13T12:31:48;99305.59;;;35.35;40.50
63819;BME280;49970;54.976;73.248;2023-07-13T12:34:17;99300.91;;;35.35;40.59
63819;BME280;49970;54.976;73.248;2023-07-13T12:36:51;99308.34;;;35.35;40.33
63819;BME280;49970;54.976;73.248;2023-07-13T12:42:22;99297.78;;;35.23;40.16
63819;BME280;49970;54.976;73.248;2023-07-13T12:45:19;99283.28;;;35.17;40.23
63819;BME280;49970;54.976;73.248;2023-07-13T12:47:53;99281.19;;;35.09;40.04
63819;BME280;49970;54.976;73.248;2023-07-13T12:50:24;99266.16;;;35.02;40.07
63819;BME280;49970;54.976;73.248;2023-07-13T12:53:05;99254.66;;;34.94;40.20
63819;BME280;49970;54.976;73.248;2023-07-13T12:55:58;99231.75;;;34.80;40.55
63819;BME280;49970;54.976;73.248;2023-07-13T12:59:46;99223.81;;;34.55;41.58
63819;BME280;49970;54.976;73.248;2023-07-13T13:03:50;99219.41;;;34.30;42.16
63819;BME280;49970;54.976;73.248;2023-07-13T13:07:31;99229.16;;;34.17;43.32
63819;BME280;49970;54.976;73.248;2023-07-13T13:15:12;99247.34;;;34.13;44.52
63819;BME280;49970;54.976;73.248;2023-07-13T13:19:13;99251.97;;;34.17;44.82
63819;BME280;49970;54.976;73.248;2023-07-13T13:23:01;99255.41;;;34.04;43.82
63819;BME280;49970;54.976;73.248;2023-07-13T13:26:57;99257.91;;;34.01;44.44
63819;BME280;49970;54.976;73.248;2023-07-13T13:30:49;99254.91;;;33.97;44.13
63819;BME280;49970;54.976;73.248;2023-07-13T13:34:40;99258.25;;;33.89;44.07
63819;BME280;49970;54.976;73.248;2023-07-13T13:38:30;99227.94;;;33.70;44.84
63819;BME280;49970;54.976;73.248;2023-07-13T13:46:35;99245.13;;;33.46;45.62
63819;BME280;49970;54.976;73.248;2023-07-13T13:50:50;99253.16;;;33.33;45.88
63819;BME280;49970;54.976;73.248;2023-07-13T13:54:42;99257.59;;;33.29;46.58
63819;BME280;49970;54.976;73.248;2023-07-13T14:06:11;99256.28;;;33.11;46.95
63819;BME280;49970;54.976;73.248;2023-07-13T14:10:33;99254.38;;;33.16;47.11
63819;BME280;49970;54.976;73.248;2023-07-13T14:14:24;99250.47;;;33.22;47.17
63819;BME280;49970;54.976;73.248;2023-07-13T14:18:15;99258.19;;;33.20;47.37
63819;BME280;49970;54.976;73.248;2023-07-13T14:29:45;99318.50;;;33.31;47.49
63819;BME280;49970;54.976;73.248;2023-07-13T14:33:36;99327.03;;;33.29;47.22
63819;BME280;49970;54.976;73.248;2023-07-13T14:45:11;99314.63;;;33.37;46.72
63819;BME280;49970;54.976;73.248;2023-07-13T14:49:06;99315.69;;;33.41;47.28
63819;BME280;49970;54.976;73.248;2023-07-13T14:52:47;99297.34;;;33.31;43.99
63819;BME280;49970;54.976;73.248;2023-07-13T15:03:48;99277.22;;;32.96;43.12
63819;BME280;49970;54.976;73.248;2023-07-13T15:07:19;99282.47;;;32.93;43.64
63819;BME280;49970;54.976;73.248;2023-07-13T15:09:20;99265.72;;;32.89;43.35
63819;BME280;49970;54.976;73.248;2023-07-13T15:11:46;99266.56;;;32.85;43.58
63819;BME280;49970;54.976;73.248;2023-07-13T15:14:13;99266.59;;;32.80;43.43
63819;BME280;49970;54.976;73.248;2023-07-13T15:16:39;99261.09;;;32.80;43.08
63819;BME280;49970;54.976;73.248;2023-07-13T15:19:05;99270.97;;;32.81;43.94
63819;BME280;49970;54.976;73.248;2023-07-13T15:21:32;99266.88;;;32.78;43.74
63819;BME280;49970;54.976;73.248;2023-07-13T15:24:00;99281.13;;;32.75;43.45
63819;BME280;49970;54.976;73.248;2023-07-13T15:26:28;99281.69;;;32.72;43.38
63819;BME280;49970;54.976;73.248;2023-07-13T15:28:54;99277.84;;;32.73;43.34
63819;BME280;49970;54.976;73.248;2023-07-13T15:31:25;99282.25;;;32.74;44.38
63819;BME280;49970;54.976;73.248;2023-07-13T15:33:54;99271.00;;;32.70;45.32
63819;BME280;49970;54.976;73.248;2023-07-13T15:36:22;99268.56;;;32.64;44.70
63819;BME280;49970;54.976;73.248;2023-07-13T15:38:51;99269.16;;;32.51;45.32
63819;BME280;49970;54.976;73.248;2023-07-13T15:41:20;99266.97;;;32.42;44.44
63819;BME280;49970;54.976;73.248;2023-07-13T15:47:37;99249.22;;;32.04;44.73
63819;BME280;49970;54.976;73.248;2023-07-13T15:51:35;99238.84;;;31.91;44.56
63819;BME280;49970;54.976;73.248;2023-07-13T15:54:08;99227.59;;;31.87;44.57
63819;BME280;49970;54.976;73.248;2023-07-13T15:57:01;99202.69;;;31.73;44.52
63819;BME280;49970;54.976;73.248;2023-07-13T16:00:30;99209.78;;;31.69;44.93
63819;BME280;49970;54.976;73.248;2023-07-13T16:02:56;99202.38;;;31.75;45.59
63819;BME280;49970;54.976;73.248;2023-07-13T16:05:23;99202.09;;;31.77;45.13
63819;BME280;49970;54.976;73.248;2023-07-13T16:07:51;99196.09;;;31.69;44.55
63819;BME280;49970;54.976;73.248;2023-07-13T16:10:32;99182.13;;;31.56;44.56
63819;BME280;49970;54.976;73.248;2023-07-13T16:13:01;99198.28;;;31.67;44.70
63819;BME280;49970;54.976;73.248;2023-07-13T16:15:27;99201.28;;;31.71;45.33
63819;BME280;49970;54.976;73.248;2023-07-13T16:17:53;99201.28;;;31.71;45.39
63819;BME280;49970;54.976;73.248;2023-07-13T16:20:20;99184.59;;;31.67;45.23
63819;BME280;49970;54.976;73.248;2023-07-13T16:22:51;99196.09;;;31.64;45.47
63819;BME280;49970;54.976;73.248;2023-07-13T16:25:23;99196.34;;;31.68;47.44
63819;BME280;49970;54.976;73.248;2023-07-13T16:27:53;99198.84;;;31.69;47.87
63819;BME280;49970;54.976;73.248;2023-07-13T16:30:27;99192.25;;;31.70;48.77
63819;BME280;49970;54.976;73.248;2023-07-13T16:32:55;99187.34;;;31.67;45.40
63819;BME280;49970;54.976;73.248;2023-07-13T16:35:25;99184.59;;;31.62;45.95
63819;BME280;49970;54.976;73.248;2023-07-13T16:37:52;99177.47;;;31.51;45.80
63819;BME280;49970;54.976;73.248;2023-07-13T16:40:26;99170.38;;;31.40;45.19
63819;BME280;49970;54.976;73.248;2023-07-13T16:42:54;99180.78;;;31.33;45.63
63819;BME280;49970;54.976;73.248;2023-07-13T16:45:23;99164.31;;;31.22;45.68
63819;BME280;49970;54.976;73.248;2023-07-13T16:47:51;99157.47;;;31.15;45.51
63819;BME280;49970;54.976;73.248;2023-07-13T16:52:45;99145.97;;;31.18;45.48
63819;BME280;49970;54.976;73.248;2023-07-13T16:55:13;99147.06;;;31.17;46.23
63819;BME280;49970;54.976;73.248;2023-07-13T16:57:45;99135.31;;;31.16;45.54
63819;BME280;49970;54.976;73.248;2023-07-13T17:00:22;99131.19;;;31.14;45.60
63819;BME280;49970;54.976;73.248;2023-07-13T17:02:54;99133.41;;;31.17;46.60
63819;BME280;49970;54.976;73.248;2023-07-13T17:05:29;99128.75;;;31.17;46.25
63819;BME280;49970;54.976;73.248;2023-07-13T17:07:58;99131.22;;;31.19;46.17
63819;BME280;49970;54.976;73.248;2023-07-13T17:10:44;99127.63;;;31.18;46.96
63819;BME280;49970;54.976;73.248;2023-07-13T17:13:55;99116.97;;;31.17;46.28
63819;BME280;49970;54.976;73.248;2023-07-13T17:16:21;99105.22;;;31.16;46.45
63819;BME280;49970;54.976;73.248;2023-07-13T17:18:50;99093.19;;;31.12;46.56
63819;BME280;49970;54.976;73.248;2023-07-13T17:21:37;99107.97;;;31.16;47.74
63819;BME280;49970;54.976;73.248;2023-07-13T17:25:12;99097.31;;;31.20;48.23
63819;BME280;49970;54.976;73.248;2023-07-13T17:27:39;99082.53;;;31.16;47.93